Time;durP1;ratioP1;P1;durP2;ratioP2;P2;SDS_P1;SDS_P2;PMS_P1;PMS_P2;Temp;Humidity;BMP_temperature;BMP_pressure;BME280_temperature;BME280_humidity;BME280_pressure;Samples;Min_cycle;Max_cycle;Signal;HPM_P1;HPM_P2
2022/12/21 00:01:11;;;;;;;11.23;7.43;;;;;;;6.36;100.00;98173.94;4199680;28;20089;-79
2022/12/21 00:03:12;;;;;;;10.25;7.85;;;;;;;6.46;100.00;98169.88;4199205;28;20150;-79
2022/12/21 00:05:12;;;;;;;11.73;7.63;;;;;;;6.42;100.00;98172.53;4199099;28;20444;-79
2022/12/21 00:07:12;;;;;;;12.85;8.35;;;;;;;6.36;100.00;98165.69;4199381;28;20063;-79
2022/12/21 00:09:14;;;;;;;10.85;7.50;;;;;;;6.35;100.00;98169.59;4199835;28;20123;-79
2022/12/21 00:11:16;;;;;;;11.32;7.32;;;;;;;6.28;100.00;98155.69;4198901;28;20078;-79
2022/12/21 00:13:17;;;;;;;10.27;7.22;;;;;;;6.23;100.00;98161.50;4197424;28;20057;-79
2022/12/21 00:15:17;;;;;;;13.32;7.75;;;;;;;6.20;100.00;98162.97;4196303;28;20056;-79
2022/12/21 00:17:18;;;;;;;10.82;7.82;;;;;;;6.18;100.00;98154.31;4194639;28;20118;-78
2022/12/21 00:19:18;;;;;;;12.00;7.78;;;;;;;6.16;100.00;98159.38;4201141;28;20073;-79
2022/12/21 00:21:23;;;;;;;12.60;8.27;;;;;;;6.20;100.00;98160.22;4194275;28;20040;-79
2022/12/21 00:23:24;;;;;;;12.50;8.18;;;;;;;6.22;100.00;98165.38;4203115;28;20087;-79
2022/12/21 00:25:24;;;;;;;13.95;7.85;;;;;;;6.21;100.00;98150.06;4202439;28;20044;-79
2022/12/21 00:27:24;;;;;;;11.40;7.50;;;;;;;6.23;100.00;98150.50;4195067;28;20070;-79
2022/12/21 00:29:25;;;;;;;10.52;7.68;;;;;;;6.25;100.00;98141.91;4202290;28;20054;-79
2022/12/21 00:31:31;;;;;;;13.20;8.75;;;;;;;6.26;100.00;98148.97;4203607;28;20044;-79
2022/12/21 00:33:32;;;;;;;10.60;7.28;;;;;;;6.29;100.00;98145.50;4202464;28;20055;-78
2022/12/21 00:35:32;;;;;;;10.30;7.80;;;;;;;6.32;100.00;98142.06;4200101;28;20044;-78
2022/12/21 00:37:32;;;;;;;10.60;6.50;;;;;;;6.61;100.00;98137.97;4204106;28;20071;-79
2022/12/21 00:39:33;;;;;;;10.50;7.00;;;;;;;6.50;100.00;98135.00;4195887;28;20036;-79
2022/12/21 00:41:33;;;;;;;9.20;6.43;;;;;;;6.45;100.00;98129.78;4202521;28;20045;-79
2022/12/21 00:43:36;;;;;;;10.00;7.15;;;;;;;6.43;100.00;98129.34;4203164;28;20425;-78
2022/12/21 00:45:37;;;;;;;9.30;6.75;;;;;;;6.40;100.00;98143.81;4203218;28;20435;-79
2022/12/21 00:47:37;;;;;;;9.88;7.00;;;;;;;6.38;100.00;98127.69;4203491;28;20177;-79
2022/12/21 00:49:38;;;;;;;8.77;6.00;;;;;;;6.39;100.00;98121.03;4199148;28;20051;-79
2022/12/21 00:51:38;;;;;;;9.93;7.03;;;;;;;6.38;100.00;98126.91;4203875;28;20434;-78
2022/12/21 00:53:39;;;;;;;10.23;6.50;;;;;;;6.35;100.00;98120.16;4202130;28;20498;-79
2022/12/21 00:55:39;;;;;;;11.20;7.25;;;;;;;6.27;100.00;98118.41;4202889;28;20422;-79
2022/12/21 00:57:39;;;;;;;9.02;6.30;;;;;;;6.18;100.00;98129.56;4196004;28;20307;-79
2022/12/21 00:59:40;;;;;;;9.07;6.63;;;;;;;6.16;100.00;98133.84;4203109;28;20044;-79
2022/12/21 01:01:40;;;;;;;9.52;6.68;;;;;;;6.22;100.00;98135.19;4202601;28;20387;-79
2022/12/21 01:03:41;;;;;;;10.10;6.18;;;;;;;6.17;100.00;98118.97;4200800;28;20036;-79
2022/12/21 01:05:45;;;;;;;9.05;6.35;;;;;;;6.13;100.00;98135.38;4202400;28;20130;-79
2022/12/21 01:07:45;;;;;;;9.75;5.80;;;;;;;6.15;100.00;98140.50;4203051;28;20113;-79
2022/12/21 01:09:45;;;;;;;9.88;6.15;;;;;;;6.17;100.00;98136.22;4196341;28;20052;-79
2022/12/21 01:11:46;;;;;;;9.70;6.40;;;;;;;6.12;100.00;98136.53;4200722;28;20105;-79
2022/12/21 01:13:47;;;;;;;8.95;5.80;;;;;;;6.04;100.00;98136.69;4202272;28;20052;-79
2022/12/21 01:15:47;;;;;;;8.23;5.60;;;;;;;6.03;100.00;98137.84;4201281;28;20059;-79
2022/12/21 01:17:48;;;;;;;9.15;6.25;;;;;;;5.96;100.00;98137.66;4201911;28;20048;-78
2022/12/21 01:19:49;;;;;;;8.60;5.95;;;;;;;5.99;100.00;98143.25;4205865;28;20391;-79
2022/12/21 01:21:50;;;;;;;9.57;6.15;;;;;;;5.96;100.00;98134.91;4201885;28;20040;-79
2022/12/21 01:23:50;;;;;;;7.20;5.63;;;;;;;5.99;100.00;98145.22;4201112;28;20055;-79
2022/12/21 01:25:51;;;;;;;8.52;5.65;;;;;;;6.02;100.00;98139.00;4189012;28;20303;-79
2022/12/21 01:27:51;;;;;;;7.20;5.43;;;;;;;6.02;100.00;98144.50;4200664;28;20057;-79
2022/12/21 01:29:51;;;;;;;6.95;5.53;;;;;;;5.98;100.00;98138.13;4201523;28;20036;-79
2022/12/21 01:31:52;;;;;;;7.00;5.70;;;;;;;5.93;100.00;98130.16;4195439;28;20044;-79
2022/12/21 01:33:52;;;;;;;5.90;4.22;;;;;;;6.10;100.00;98130.56;4201916;28;20364;-79
2022/12/21 01:35:52;;;;;;;9.70;5.20;;;;;;;6.18;100.00;98131.53;4188321;28;20040;-78
2022/12/21 01:37:53;;;;;;;6.38;5.25;;;;;;;6.21;100.00;98136.34;4202419;28;20131;-78
2022/12/21 01:39:53;;;;;;;6.00;4.88;;;;;;;6.20;100.00;98127.25;4200592;28;20102;-79
2022/12/21 01:41:54;;;;;;;6.13;4.40;;;;;;;6.26;100.00;98127.00;4203184;28;20084;-79
2022/12/21 01:44:01;;;;;;;6.20;4.38;;;;;;;6.34;100.00;98134.25;4202942;28;20456;-79
2022/12/21 01:46:02;;;;;;;5.35;4.38;;;;;;;6.33;100.00;98122.47;4203632;28;20558;-79
2022/12/21 01:48:09;;;;;;;5.78;4.25;;;;;;;6.32;100.00;98122.81;4201903;28;20449;-78
2022/12/21 01:50:36;;;;;;;6.60;4.65;;;;;;;6.32;100.00;98122.81;4193643;28;20052;-79
2022/12/21 01:52:37;;;;;;;6.68;4.63;;;;;;;6.31;100.00;98129.47;4201556;28;20052;-79
2022/12/21 01:54:44;;;;;;;5.68;4.55;;;;;;;6.32;100.00;98131.06;4204056;28;20044;-79
2022/12/21 01:56:48;;;;;;;7.22;4.50;;;;;;;6.31;100.00;98121.25;4204025;28;20341;-79
2022/12/21 01:58:49;;;;;;;5.47;4.30;;;;;;;6.27;100.00;98112.91;4204901;28;20070;-79
2022/12/21 02:00:49;;;;;;;6.93;4.95;;;;;;;6.28;100.00;98117.22;4190115;28;20385;-79
2022/12/21 02:02:54;;;;;;;6.88;4.10;;;;;;;6.25;100.00;98115.22;4202661;28;20044;-79
2022/12/21 02:05:00;;;;;;;5.22;4.38;;;;;;;6.18;100.00;98107.59;4195738;28;20520;-79
2022/12/21 02:07:00;;;;;;;7.18;5.15;;;;;;;6.14;100.00;98108.69;4203482;28;20040;-79
2022/12/21 02:09:02;;;;;;;5.85;4.32;;;;;;;6.11;100.00;98107.44;4203854;28;20534;-79
2022/12/21 02:11:05;;;;;;;6.37;4.50;;;;;;;6.07;100.00;98105.78;4203410;28;20052;-79
2022/12/21 02:13:09;;;;;;;6.13;4.32;;;;;;;5.97;100.00;98104.38;4199875;28;20123;-79
2022/12/21 02:15:10;;;;;;;7.97;4.50;;;;;;;5.97;100.00;98098.88;4202123;28;20115;-79
2022/12/21 02:17:38;;;;;;;5.97;4.40;;;;;;;5.89;100.00;98102.59;4204732;28;20086;-79
2022/12/21 02:20:03;;;;;;;5.30;4.07;;;;;;;5.88;100.00;98112.78;4201031;28;20055;-79
2022/12/21 02:22:37;;;;;;;4.93;3.60;;;;;;;5.94;100.00;98104.28;4202939;28;20119;-79
2022/12/21 02:25:09;;;;;;;5.47;4.05;;;;;;;5.90;100.00;98112.41;4202548;28;20048;-79
2022/12/21 02:27:35;;;;;;;4.15;3.50;;;;;;;5.88;100.00;98106.50;4202546;28;20040;-79
2022/12/21 02:29:54;;;;;;;4.95;3.63;;;;;;;5.83;100.00;98104.81;4202467;28;20082;-79
2022/12/21 02:32:03;;;;;;;5.63;4.05;;;;;;;5.85;100.00;98107.19;4201454;28;20047;-79
2022/12/21 02:34:22;;;;;;;4.53;3.75;;;;;;;5.85;100.00;98102.50;4192160;28;20048;-79
2022/12/21 02:36:26;;;;;;;6.90;3.50;;;;;;;5.81;100.00;98090.63;4200655;28;20523;-79
2022/12/21 02:39:11;;;;;;;5.15;3.65;;;;;;;5.86;100.00;98081.31;4201869;28;20296;-79
2022/12/21 02:41:25;;;;;;;4.70;3.42;;;;;;;5.96;100.00;98105.53;4179548;28;20286;-79
2022/12/21 02:46:22;;;;;;;3.60;2.75;;;;;;;6.12;100.00;98087.09;4200702;28;20236;-79
2022/12/21 02:48:55;;;;;;;5.47;3.20;;;;;;;6.23;100.00;98084.56;4203490;28;20299;-79
2022/12/21 02:51:00;;;;;;;3.83;3.13;;;;;;;6.25;100.00;98089.69;4197359;28;20048;-79
2022/12/21 02:53:06;;;;;;;5.22;3.30;;;;;;;6.28;100.00;98089.75;4200742;28;20189;-79
2022/12/21 02:55:10;;;;;;;4.13;3.20;;;;;;;6.33;100.00;98091.44;4202139;28;20550;-78
2022/12/21 02:57:11;;;;;;;4.30;3.30;;;;;;;6.35;100.00;98086.38;4201755;28;20044;-79
2022/12/21 02:59:15;;;;;;;4.88;3.63;;;;;;;6.37;100.00;98089.56;4202268;28;20062;-79
2022/12/21 03:01:22;;;;;;;4.38;3.33;;;;;;;6.45;100.00;98083.06;4203099;28;20349;-79
2022/12/21 03:03:48;;;;;;;3.78;3.20;;;;;;;6.40;100.00;98081.41;4201820;28;20052;-78
2022/12/21 03:05:54;;;;;;;3.97;3.58;;;;;;;6.51;100.00;98086.31;4202872;28;20535;-79
2022/12/21 03:08:25;;;;;;;5.32;3.55;;;;;;;6.52;100.00;98087.91;4201218;28;20515;-79
2022/12/21 03:10:51;;;;;;;4.72;3.38;;;;;;;6.58;100.00;98087.28;4201644;28;20442;-79
2022/12/21 03:13:09;;;;;;;4.50;3.75;;;;;;;6.63;100.00;98089.75;4201216;28;20145;-79
2022/12/21 03:15:24;;;;;;;4.80;3.30;;;;;;;6.72;100.00;98084.03;4199246;28;20048;-79
2022/12/21 03:17:42;;;;;;;5.10;4.05;;;;;;;6.78;100.00;98101.00;4202387;28;20139;-79
2022/12/21 03:19:57;;;;;;;5.45;3.72;;;;;;;6.82;100.00;98099.16;4201654;28;20570;-79
2022/12/21 03:22:06;;;;;;;5.05;4.10;;;;;;;6.80;100.00;98095.97;4200304;28;20090;-78
2022/12/21 03:24:17;;;;;;;4.97;3.38;;;;;;;6.78;100.00;98092.75;4201096;28;20403;-78
2022/12/21 03:26:29;;;;;;;5.15;3.88;;;;;;;6.70;100.00;98091.81;4202573;28;20036;-78
2022/12/21 03:28:33;;;;;;;4.95;3.53;;;;;;;6.78;100.00;98092.75;4202287;28;20371;-79
2022/12/21 03:30:41;;;;;;;4.60;3.75;;;;;;;6.74;100.00;98081.72;4200115;28;20040;-79
2022/12/21 03:32:59;;;;;;;4.90;3.97;;;;;;;6.73;100.00;98088.38;4194118;28;20450;-79
2022/12/21 03:35:01;;;;;;;4.75;3.50;;;;;;;6.80;100.00;98083.03;4202942;28;20040;-79
2022/12/21 03:37:01;;;;;;;5.70;3.70;;;;;;;6.79;100.00;98091.63;4201089;28;20468;-79
2022/12/21 03:39:15;;;;;;;5.07;4.03;;;;;;;6.73;100.00;98080.13;4202865;28;20044;-79
2022/12/21 03:41:29;;;;;;;5.28;4.18;;;;;;;6.80;100.00;98076.72;4202065;28;20044;-79
2022/12/21 03:43:33;;;;;;;4.53;3.13;;;;;;;6.84;100.00;98074.81;4201548;28;20047;-78
2022/12/21 03:45:44;;;;;;;5.13;3.72;;;;;;;6.81;100.00;98076.34;4201645;28;20261;-79
2022/12/21 03:48:30;;;;;;;4.50;3.70;;;;;;;6.82;100.00;98082.66;4202065;28;20319;-79
2022/12/21 03:50:35;;;;;;;5.85;3.90;;;;;;;6.86;100.00;98072.50;4201198;28;20135;-79
2022/12/21 03:52:46;;;;;;;5.10;3.95;;;;;;;6.86;100.00;98073.28;4201283;28;20433;-79
2022/12/21 03:54:59;;;;;;;4.90;3.17;;;;;;;6.91;100.00;98066.72;4202294;28;20040;-79
2022/12/21 03:57:00;;;;;;;4.95;3.30;;;;;;;6.99;100.00;98071.19;4202376;28;20419;-79
2022/12/21 03:59:01;;;;;;;4.15;3.30;;;;;;;6.97;100.00;98068.03;4203154;28;20051;-79
2022/12/21 04:01:37;;;;;;;4.07;3.10;;;;;;;6.95;100.00;98060.13;4201158;28;20139;-79
2022/12/21 04:03:42;;;;;;;4.25;3.30;;;;;;;6.94;100.00;98063.22;4200997;28;20105;-79
2022/12/21 04:05:50;;;;;;;4.80;3.30;;;;;;;6.81;100.00;98062.59;4202623;28;20040;-79
2022/12/21 04:07:52;;;;;;;4.65;3.30;;;;;;;6.82;100.00;98066.16;4197153;28;20076;-79
2022/12/21 04:10:03;;;;;;;3.50;2.90;;;;;;;6.82;100.00;98053.19;4199762;28;20032;-79
2022/12/21 04:14:24;;;;;;;4.68;3.22;;;;;;;6.75;100.00;98055.81;4200223;28;20047;-79
2022/12/21 04:16:25;;;;;;;3.45;2.80;;;;;;;6.72;100.00;98045.53;4196688;28;20070;-79
2022/12/21 04:20:44;;;;;;;3.10;2.60;;;;;;;6.76;100.00;98055.44;4201630;28;20054;-79
2022/12/21 04:29:42;;;;;;;3.42;2.67;;;;;;;6.81;100.00;98054.34;4201106;28;20097;-79
2022/12/21 04:31:42;;;;;;;3.13;2.63;;;;;;;6.75;100.00;98042.06;4202553;28;20056;-79
2022/12/21 04:33:42;;;;;;;5.57;3.08;;;;;;;6.75;100.00;98053.06;4198642;28;20476;-79
2022/12/21 04:38:03;;;;;;;3.67;2.97;;;;;;;6.80;100.00;98052.78;4200664;28;20423;-78
2022/12/21 04:40:04;;;;;;;3.70;2.90;;;;;;;6.81;100.00;98053.56;4201322;28;20557;-79
2022/12/21 04:42:04;;;;;;;3.45;2.70;;;;;;;6.82;100.00;98046.91;4200792;28;20087;-79
2022/12/21 04:44:04;;;;;;;4.25;2.70;;;;;;;6.83;100.00;98062.25;4191211;28;20119;-79
2022/12/21 04:46:07;;;;;;;3.58;2.95;;;;;;;6.70;100.00;98056.91;4200312;28;20034;-79
2022/12/21 04:48:08;;;;;;;3.63;2.95;;;;;;;6.69;100.00;98060.78;4202205;28;20127;-79
2022/12/21 04:50:09;;;;;;;4.22;3.00;;;;;;;6.72;100.00;98070.28;4199506;28;20115;-79
2022/12/21 04:52:09;;;;;;;4.57;3.20;;;;;;;6.73;100.00;98074.63;4201706;28;20042;-79
2022/12/21 04:54:10;;;;;;;4.88;3.00;;;;;;;6.69;100.00;98062.75;4200427;28;20454;-79
2022/12/21 04:56:11;;;;;;;4.22;3.15;;;;;;;6.72;100.00;98060.09;4201444;28;20375;-79
2022/12/21 04:58:11;;;;;;;3.85;2.97;;;;;;;6.72;100.00;98057.34;4202125;28;21074;-79
2022/12/21 05:00:12;;;;;;;3.97;2.97;;;;;;;6.73;100.00;98047.91;4200624;28;20299;-79
2022/12/21 05:02:13;;;;;;;3.13;2.78;;;;;;;6.71;100.00;98053.00;4201235;28;20107;-79
2022/12/21 05:04:13;;;;;;;3.55;3.00;;;;;;;6.69;100.00;98047.03;4202499;28;20080;-80
2022/12/21 05:06:15;;;;;;;3.35;2.53;;;;;;;6.69;100.00;98052.53;4204251;28;20593;-79
2022/12/21 05:08:15;;;;;;;3.53;3.08;;;;;;;6.72;100.00;98054.59;4203504;28;20028;-79
2022/12/21 05:10:16;;;;;;;3.63;3.03;;;;;;;6.74;100.00;98057.75;4202901;28;20127;-79
2022/12/21 05:12:16;;;;;;;4.32;3.20;;;;;;;6.79;100.00;98053.13;4205169;28;20079;-79
2022/12/21 05:14:16;;;;;;;3.75;3.00;;;;;;;6.75;100.00;98048.34;4203032;28;20116;-79
2022/12/21 05:16:22;;;;;;;3.70;2.85;;;;;;;6.79;100.00;98064.13;4202749;28;20480;-79
2022/12/21 05:18:22;;;;;;;3.20;2.63;;;;;;;6.83;100.00;98054.78;4203148;28;20189;-79
2022/12/21 05:20:22;;;;;;;3.45;2.90;;;;;;;6.81;100.00;98057.09;4204447;28;20056;-79
2022/12/21 05:22:23;;;;;;;3.95;3.38;;;;;;;6.82;100.00;98044.94;4196143;28;20539;-79
2022/12/21 05:24:23;;;;;;;3.30;2.60;;;;;;;6.85;100.00;98055.22;4203616;28;20044;-79
2022/12/21 05:26:23;;;;;;;3.67;3.03;;;;;;;6.83;100.00;98054.00;4202888;28;20071;-79
2022/12/21 05:28:24;;;;;;;4.00;3.15;;;;;;;6.81;100.00;98050.81;4204850;28;20407;-79
2022/12/21 05:30:24;;;;;;;3.45;3.10;;;;;;;6.78;100.00;98051.53;4203374;28;20049;-78
2022/12/21 05:32:24;;;;;;;3.67;3.13;;;;;;;6.74;100.00;98052.25;4202689;28;20047;-79
2022/12/21 05:34:25;;;;;;;3.35;2.78;;;;;;;6.71;100.00;98053.00;4202789;28;20046;-79
2022/12/21 05:36:25;;;;;;;3.28;2.63;;;;;;;6.68;100.00;98050.94;4189343;28;20060;-79
2022/12/21 05:38:25;;;;;;;3.58;2.97;;;;;;;6.66;100.00;98041.50;4200538;28;20548;-79
2022/12/21 05:40:25;;;;;;;2.95;2.63;;;;;;;6.62;100.00;98044.19;4202849;28;20523;-79
2022/12/21 05:42:26;;;;;;;3.42;2.88;;;;;;;6.64;100.00;98049.31;4203323;28;20091;-79
2022/12/21 05:44:27;;;;;;;3.45;2.97;;;;;;;6.60;100.00;98051.97;4202684;28;20139;-79
2022/12/21 05:46:27;;;;;;;3.53;2.78;;;;;;;6.58;100.00;98046.03;4203518;28;20571;-79
2022/12/21 05:48:28;;;;;;;3.33;2.90;;;;;;;6.59;100.00;98046.84;4203416;28;20036;-79
2022/12/21 05:50:28;;;;;;;3.35;2.90;;;;;;;6.58;100.00;98045.25;4196427;28;20123;-79
2022/12/21 05:52:29;;;;;;;2.80;2.50;;;;;;;6.55;100.00;98051.47;4202144;28;20075;-79
2022/12/21 05:54:29;;;;;;;3.83;2.85;;;;;;;6.51;100.00;98045.09;4204182;28;20044;-79
2022/12/21 05:56:29;;;;;;;2.80;2.50;;;;;;;6.50;100.00;98049.81;4203349;28;20040;-79
2022/12/21 05:58:30;;;;;;;4.28;3.00;;;;;;;6.46;100.00;98044.25;4203547;28;20040;-79
2022/12/21 06:00:30;;;;;;;6.03;3.42;;;;;;;6.46;100.00;98048.94;4202453;28;20058;-79
2022/12/21 06:02:31;;;;;;;7.57;5.40;;;;;;;6.46;100.00;98059.94;4201914;28;20502;-79
2022/12/21 06:04:32;;;;;;;7.57;5.25;;;;;;;6.43;100.00;98055.94;4202273;28;20063;-79
2022/12/21 06:06:32;;;;;;;5.72;4.28;;;;;;;6.41;100.00;98055.50;4121597;28;20056;-78
2022/12/21 06:08:33;;;;;;;3.50;3.15;;;;;;;6.44;100.00;98054.00;4208980;27;20479;-79
2022/12/21 06:10:36;;;;;;;3.35;2.72;;;;;;;6.47;100.00;98059.56;4202287;28;20415;-79
2022/12/21 06:12:36;;;;;;;2.75;2.40;;;;;;;6.52;100.00;98063.19;4195956;28;20048;-79
2022/12/21 06:14:36;;;;;;;1.95;1.70;;;;;;;6.55;100.00;98054.22;4202376;28;20093;-79
2022/12/21 06:16:36;;;;;;;4.15;2.33;;;;;;;6.50;100.00;98044.31;4200880;28;20051;-79
2022/12/21 06:18:38;;;;;;;2.30;2.08;;;;;;;6.60;100.00;98062.16;4202231;28;20043;-79
2022/12/21 06:20:38;;;;;;;2.53;2.10;;;;;;;6.61;100.00;98063.75;4202820;28;20052;-79
2022/12/21 06:22:40;;;;;;;2.58;2.00;;;;;;;6.61;100.00;98053.56;4200094;28;20568;-79
2022/12/21 06:24:41;;;;;;;2.30;2.00;;;;;;;6.60;100.00;98062.97;4193949;28;20048;-79
2022/12/21 06:26:41;;;;;;;2.33;1.92;;;;;;;6.61;100.00;98061.00;4200925;28;20044;-79
2022/12/21 06:28:45;;;;;;;2.50;1.92;;;;;;;6.66;100.00;98064.28;4203813;28;20047;-79
2022/12/21 06:30:45;;;;;;;2.95;2.28;;;;;;;6.64;100.00;98058.34;4202176;28;20046;-79
2022/12/21 06:32:46;;;;;;;1.95;1.80;;;;;;;6.63;100.00;98065.00;4201536;28;20273;-79
2022/12/21 06:34:46;;;;;;;4.65;2.28;;;;;;;6.61;100.00;98069.25;4195439;28;20390;-79
2022/12/21 06:36:47;;;;;;;2.88;2.15;;;;;;;6.60;100.00;98073.16;4203036;28;20052;-78
2022/12/21 06:38:47;;;;;;;2.50;2.10;;;;;;;6.63;100.00;98070.50;4200747;28;20044;-79
2022/12/21 06:40:54;;;;;;;2.90;1.90;;;;;;;6.62;100.00;98082.66;4202836;28;20036;-79
2022/12/21 06:42:54;;;;;;;2.55;2.10;;;;;;;6.63;100.00;98080.72;4197628;28;20067;-78
2022/12/21 06:44:55;;;;;;;3.50;2.72;;;;;;;6.59;100.00;98068.81;4201203;28;20525;-79
2022/12/21 06:46:55;;;;;;;2.97;2.03;;;;;;;6.59;100.00;98068.81;4201602;28;20075;-79
2022/12/21 06:48:55;;;;;;;2.63;2.05;;;;;;;6.58;100.00;98065.28;4201282;28;20133;-79
2022/12/21 06:50:58;;;;;;;2.53;2.13;;;;;;;6.58;100.00;98073.53;4202957;28;20137;-79
2022/12/21 06:52:58;;;;;;;2.25;2.05;;;;;;;6.56;100.00;98070.34;4201146;28;20102;-79
2022/12/21 06:54:58;;;;;;;2.35;2.15;;;;;;;6.54;100.00;98072.69;4203324;28;20052;-79
2022/12/21 06:56:59;;;;;;;10.30;3.55;;;;;;;6.56;100.00;98075.84;4201693;28;20097;-79
2022/12/21 06:58:59;;;;;;;2.35;2.00;;;;;;;6.55;100.00;98082.50;4202716;28;20045;-79
2022/12/21 07:01:27;;;;;;;3.15;2.00;;;;;;;6.52;100.00;98088.72;4203049;28;20044;-79
2022/12/21 07:03:27;;;;;;;2.40;2.00;;;;;;;6.55;100.00;98087.22;4185967;28;20615;-79
2022/12/21 07:05:28;;;;;;;3.85;1.90;;;;;;;6.53;100.00;98098.53;4200238;28;20063;-79
2022/12/21 07:07:28;;;;;;;2.22;2.03;;;;;;;6.51;100.00;98089.88;4202706;28;20396;-79
2022/12/21 07:09:28;;;;;;;3.67;2.10;;;;;;;6.53;100.00;98097.75;4199543;28;20068;-79
2022/12/21 07:11:29;;;;;;;1.80;1.70;;;;;;;6.52;100.00;98096.94;4194628;28;20062;-78
2022/12/21 07:13:30;;;;;;;3.17;1.95;;;;;;;6.51;100.00;98097.31;4197081;28;20392;-79
2022/12/21 07:15:33;;;;;;;2.63;1.85;;;;;;;6.55;100.00;98099.00;4202605;28;20040;-79
2022/12/21 07:17:34;;;;;;;3.97;1.98;;;;;;;6.56;100.00;98103.34;4202317;28;20110;-79
2022/12/21 07:19:35;;;;;;;2.10;1.75;;;;;;;6.59;100.00;98105.34;4201903;28;20055;-79
2022/12/21 07:21:35;;;;;;;1.85;1.50;;;;;;;6.59;100.00;98104.56;4201683;28;20048;-79
2022/12/21 07:23:38;;;;;;;4.10;2.20;;;;;;;6.59;100.00;98107.31;4199820;28;20483;-79
2022/12/21 07:25:39;;;;;;;2.88;1.70;;;;;;;6.56;100.00;98108.03;4201256;28;20086;-79
2022/12/21 07:27:39;;;;;;;1.65;1.52;;;;;;;6.53;100.00;98108.75;4202195;28;20447;-78
2022/12/21 07:29:39;;;;;;;2.25;1.60;;;;;;;6.48;100.00;98098.84;4194295;28;20356;-78
2022/12/21 07:31:40;;;;;;;2.00;1.80;;;;;;;6.47;100.00;98097.25;4201527;28;20469;-79
2022/12/21 07:33:41;;;;;;;2.05;1.85;;;;;;;6.46;100.00;98090.97;4202213;28;20577;-79
2022/12/21 07:35:41;;;;;;;1.75;1.50;;;;;;;6.44;100.00;98097.97;4202402;28;20083;-79
2022/12/21 07:37:42;;;;;;;2.10;1.75;;;;;;;6.44;100.00;98096.00;4200065;28;20356;-79
2022/12/21 07:39:42;;;;;;;3.15;1.70;;;;;;;6.41;100.00;98090.44;4202207;28;20571;-79
2022/12/21 07:41:42;;;;;;;2.13;1.65;;;;;;;6.42;100.00;98089.28;4202125;28;20789;-79
2022/12/21 07:43:43;;;;;;;2.50;1.90;;;;;;;6.41;100.00;98102.22;4200469;28;20147;-79
2022/12/21 07:45:43;;;;;;;2.00;1.80;;;;;;;6.42;100.00;98103.81;4202051;28;20140;-79
2022/12/21 07:47:44;;;;;;;3.67;2.10;;;;;;;6.40;100.00;98108.09;4193111;28;20657;-79
2022/12/21 07:49:44;;;;;;;2.10;1.70;;;;;;;6.40;100.00;98108.09;4201544;28;20048;-79
2022/12/21 07:51:45;;;;;;;2.72;1.88;;;;;;;6.41;100.00;98107.72;4201064;28;20533;-79
2022/12/21 07:53:45;;;;;;;2.83;1.70;;;;;;;6.43;100.00;98110.09;4199862;28;20055;-79
2022/12/21 07:55:46;;;;;;;1.90;1.40;;;;;;;6.42;100.00;98092.81;4202300;28;20231;-79
2022/12/21 07:57:46;;;;;;;2.65;1.30;;;;;;;6.39;100.00;98099.06;4201470;28;20847;-79
2022/12/21 07:59:46;;;;;;;1.63;1.48;;;;;;;6.40;100.00;98100.66;4200281;28;20364;-79
2022/12/21 08:01:47;;;;;;;3.60;1.70;;;;;;;6.39;100.00;98107.28;4200584;28;20042;-78
2022/12/21 08:03:47;;;;;;;1.52;1.40;;;;;;;6.38;100.00;98108.47;4201508;28;20048;-79
2022/12/21 08:05:48;;;;;;;6.43;1.35;;;;;;;6.40;100.00;98105.34;4201915;28;20484;-78
2022/12/21 08:07:48;;;;;;;1.52;1.40;;;;;;;6.45;100.00;98113.28;4198232;28;20036;-78
2022/12/21 08:09:48;;;;;;;1.80;1.50;;;;;;;6.46;100.00;98107.47;4202531;28;20044;-79
2022/12/21 08:11:49;;;;;;;1.40;1.30;;;;;;;6.48;100.00;98110.63;4199617;28;20078;-78
2022/12/21 08:13:49;;;;;;;8.45;1.90;;;;;;;6.52;100.00;98109.91;4201755;28;20444;-79
2022/12/21 08:16:06;;;;;;;3.38;1.73;;;;;;;6.50;100.00;98104.78;4199450;28;20134;-79
2022/12/21 08:18:06;;;;;;;1.50;1.40;;;;;;;6.52;100.00;98105.19;4201656;28;20048;-79
2022/12/21 08:20:07;;;;;;;1.92;1.48;;;;;;;6.51;100.00;98100.88;4198369;28;20400;-79
2022/12/21 08:22:09;;;;;;;2.42;1.92;;;;;;;6.51;100.00;98091.81;4201621;28;20287;-79
2022/12/21 08:24:10;;;;;;;1.73;1.23;;;;;;;6.50;100.00;98093.78;4192009;28;20422;-79
2022/12/21 08:26:12;;;;;;;1.65;1.27;;;;;;;6.50;100.00;98099.28;4198831;28;20041;-78
2022/12/21 08:28:13;;;;;;;1.45;1.35;;;;;;;6.47;100.00;98097.25;4198221;28;20406;-79
2022/12/21 08:30:14;;;;;;;2.45;1.23;;;;;;;6.47;100.00;98106.28;4199936;28;20081;-79
2022/12/21 08:32:14;;;;;;;1.50;1.30;;;;;;;6.48;100.00;98113.38;4202066;28;20038;-79
2022/12/21 08:34:15;;;;;;;1.42;1.10;;;;;;;6.49;100.00;98114.19;4191667;28;20043;-79
2022/12/21 08:36:19;;;;;;;2.47;1.30;;;;;;;6.51;100.00;98109.09;4202144;28;20028;-79
2022/12/21 08:38:19;;;;;;;1.23;1.10;;;;;;;6.51;100.00;98105.56;4201985;28;20089;-79
2022/12/21 08:40:19;;;;;;;1.30;1.20;;;;;;;6.54;100.00;98116.66;4204265;28;20028;-79
2022/12/21 08:42:19;;;;;;;1.40;1.27;;;;;;;6.54;100.00;98110.34;4202211;28;20032;-79
2022/12/21 08:44:20;;;;;;;1.90;1.80;;;;;;;6.53;100.00;98112.28;4204609;28;20028;-79
2022/12/21 08:46:20;;;;;;;1.45;1.25;;;;;;;6.54;100.00;98118.56;4205582;28;20083;-79
2022/12/21 08:48:20;;;;;;;2.55;1.60;;;;;;;6.55;100.00;98106.44;4205590;28;20079;-79
2022/12/21 08:50:21;;;;;;;2.85;1.80;;;;;;;6.56;100.00;98097.84;4205207;28;20318;-79
2022/12/21 08:52:21;;;;;;;1.83;1.70;;;;;;;6.56;100.00;98103.34;4204650;28;20047;-79
2022/12/21 08:54:22;;;;;;;2.30;2.03;;;;;;;6.56;100.00;98100.59;4198666;28;20826;-79
2022/12/21 08:56:22;;;;;;;1.95;1.75;;;;;;;6.56;100.00;98108.84;4203623;28;20159;-79
2022/12/21 08:58:23;;;;;;;4.40;2.58;;;;;;;6.57;100.00;98107.69;4204964;28;20811;-79
2022/12/21 09:00:24;;;;;;;3.75;2.50;;;;;;;6.58;100.00;98116.72;4196502;28;20040;-79
2022/12/21 09:02:24;;;;;;;3.83;2.70;;;;;;;6.57;100.00;98120.63;4202478;28;20044;-79
2022/12/21 09:04:24;;;;;;;4.95;3.20;;;;;;;6.60;100.00;98111.66;4194524;28;20036;-79
2022/12/21 09:06:25;;;;;;;3.63;2.45;;;;;;;6.61;100.00;98108.53;4203112;28;20146;-79
2022/12/21 09:08:25;;;;;;;3.97;2.30;;;;;;;6.61;100.00;98115.97;4205216;28;20066;-78
2022/12/21 09:10:26;;;;;;;3.60;2.20;;;;;;;6.59;100.00;98113.59;4202612;28;20572;-79
2022/12/21 09:12:27;;;;;;;4.70;2.95;;;;;;;6.62;100.00;98106.56;4203906;28;20040;-79
2022/12/21 09:14:28;;;;;;;3.95;2.65;;;;;;;6.63;100.00;98108.19;4198215;28;20381;-78
2022/12/21 09:16:29;;;;;;;2.30;2.10;;;;;;;6.60;100.00;98109.69;4204012;28;20480;-79
2022/12/21 09:18:29;;;;;;;3.03;2.30;;;;;;;6.61;100.00;98107.75;4204227;28;20109;-78
2022/12/21 09:20:29;;;;;;;4.00;2.58;;;;;;;6.65;100.00;98106.66;4205315;28;20558;-79
2022/12/21 09:22:30;;;;;;;3.35;2.83;;;;;;;6.66;100.00;98112.97;4202229;28;20441;-79
2022/12/21 09:24:30;;;;;;;4.80;3.45;;;;;;;6.69;100.00;98104.78;4204871;28;20043;-79
2022/12/21 09:26:31;;;;;;;7.18;4.65;;;;;;;6.75;100.00;98108.03;4202393;28;20058;-79
2022/12/21 09:28:32;;;;;;;5.22;3.97;;;;;;;6.80;100.00;98112.47;4198228;28;20105;-79
2022/12/21 09:30:32;;;;;;;4.05;3.55;;;;;;;6.84;100.00;98113.31;4203433;28;20734;-78
2022/12/21 09:32:33;;;;;;;4.63;3.63;;;;;;;6.84;100.00;98114.13;4203000;28;20032;-78
2022/12/21 09:34:33;;;;;;;5.82;4.20;;;;;;;6.88;100.00;98108.72;4203862;28;20051;-79
2022/12/21 09:36:34;;;;;;;3.65;3.35;;;;;;;6.89;100.00;98107.53;4203917;28;20476;-79
2022/12/21 09:38:35;;;;;;;4.05;3.10;;;;;;;6.89;100.00;98093.78;4204105;28;20056;-79
2022/12/21 09:40:36;;;;;;;8.38;2.75;;;;;;;6.90;100.00;98112.69;4201249;28;20044;-79
2022/12/21 09:42:42;;;;;;;3.13;2.47;;;;;;;6.92;100.00;98101.31;4201928;28;20433;-79
2022/12/21 09:44:50;;;;;;;3.58;2.28;;;;;;;6.93;100.00;98102.91;4202242;28;20071;-79
2022/12/21 09:46:54;;;;;;;2.78;1.90;;;;;;;6.92;100.00;98093.06;4203930;28;20048;-79
2022/12/21 09:49:04;;;;;;;3.70;2.50;;;;;;;6.93;100.00;98100.16;4199929;28;20139;-79
2022/12/21 09:51:12;;;;;;;2.47;1.90;;;;;;;6.97;100.00;98103.78;4203051;28;20135;-79
2022/12/21 09:53:19;;;;;;;2.28;1.95;;;;;;;6.96;100.00;98093.94;4200451;28;20099;-79
2022/12/21 09:55:22;;;;;;;2.10;1.85;;;;;;;6.99;100.00;98102.25;4203895;28;20047;-79
2022/12/21 09:57:28;;;;;;;2.15;1.70;;;;;;;7.05;100.00;98100.00;4202496;28;20433;-79